Time;durP1;ratioP1;P1;durP2;ratioP2;P2;SDS_P1;SDS_P2;PMS_P1;PMS_P2;Temp;Humidity;BMP_temperature;BMP_pressure;BME280_temperature;BME280_humidity;BME280_pressure;Samples;Min_cycle;Max_cycle;Signal;HPM_P1;HPM_P2
2023/12/01 00:00:39;;;;;;;19.40;15.38;;;1.10;99.90;;;;;;5028093;28;20791;-61
2023/12/01 00:03:05;;;;;;;18.58;14.73;;;1.10;99.90;;;;;;5028385;28;20120;-63
2023/12/01 00:05:31;;;;;;;22.88;14.73;;;1.10;99.90;;;;;;5028217;28;20141;-62
2023/12/01 00:07:56;;;;;;;21.05;13.50;;;1.10;99.90;;;;;;5027398;28;20468;-62
2023/12/01 00:10:22;;;;;;;18.55;14.02;;;1.20;99.90;;;;;;5027528;28;20035;-62
2023/12/01 00:12:48;;;;;;;20.23;15.80;;;1.10;99.90;;;;;;5025804;28;20018;-62
2023/12/01 00:15:14;;;;;;;24.38;15.27;;;1.10;99.90;;;;;;5028419;28;20026;-63
2023/12/01 00:17:39;;;;;;;23.45;15.68;;;1.10;99.90;;;;;;5026255;28;20056;-62
2023/12/01 00:20:06;;;;;;;19.83;16.02;;;1.10;99.90;;;;;;5027659;28;20152;-63
2023/12/01 00:22:31;;;;;;;17.55;14.18;;;1.10;99.90;;;;;;5026856;28;20483;-62
2023/12/01 00:24:57;;;;;;;20.65;14.88;;;1.10;99.90;;;;;;5026298;28;20057;-63
2023/12/01 00:27:22;;;;;;;21.10;14.68;;;1.10;99.90;;;;;;5027533;28;20451;-61
2023/12/01 00:29:48;;;;;;;23.17;14.98;;;1.10;99.90;;;;;;5026603;28;20076;-62
2023/12/01 00:32:14;;;;;;;17.27;14.05;;;1.10;99.90;;;;;;5027880;28;20113;-62
2023/12/01 00:34:40;;;;;;;17.38;14.68;;;1.10;99.90;;;;;;5026787;28;20088;-61
2023/12/01 00:37:21;;;;;;;14.88;13.23;;;1.10;99.90;;;;;;5026513;28;20025;-61
2023/12/01 00:39:46;;;;;;;19.40;14.07;;;1.10;99.90;;;;;;5027684;28;20163;-62
2023/12/01 00:42:13;;;;;;;20.65;13.60;;;1.10;99.90;;;;;;5026750;28;20108;-61
2023/12/01 00:44:39;;;;;;;20.10;14.25;;;1.00;99.90;;;;;;5027023;28;20021;-61
2023/12/01 00:47:05;;;;;;;18.33;13.52;;;1.00;99.90;;;;;;5026495;28;20080;-62
2023/12/01 00:49:31;;;;;;;18.30;14.00;;;1.00;99.90;;;;;;5025525;28;20035;-62
2023/12/01 00:51:57;;;;;;;22.25;15.05;;;1.00;99.90;;;;;;5026485;28;20029;-62
2023/12/01 00:54:23;;;;;;;23.02;16.55;;;1.00;99.90;;;;;;5026876;28;20025;-62
2023/12/01 00:56:49;;;;;;;20.50;15.48;;;1.10;99.90;;;;;;5025584;28;20037;-62
2023/12/01 00:59:14;;;;;;;17.85;14.68;;;1.00;99.90;;;;;;5026812;28;20034;-62
2023/12/01 01:01:40;;;;;;;22.83;16.77;;;1.00;99.90;;;;;;5025298;28;20091;-62
2023/12/01 01:04:05;;;;;;;19.95;15.32;;;1.00;99.90;;;;;;5026452;28;20569;-60
2023/12/01 01:06:31;;;;;;;32.42;19.98;;;1.00;99.90;;;;;;5027456;28;20029;-62
2023/12/01 01:08:57;;;;;;;30.15;19.27;;;1.00;99.90;;;;;;5027140;28;20029;-63
2023/12/01 01:11:22;;;;;;;27.23;18.65;;;1.10;99.90;;;;;;5026535;28;20026;-62
2023/12/01 01:13:48;;;;;;;20.25;16.10;;;1.10;99.90;;;;;;5027301;28;20439;-63
2023/12/01 01:16:13;;;;;;;19.40;14.73;;;1.10;99.90;;;;;;5025060;28;20401;-63
2023/12/01 01:18:39;;;;;;;37.65;19.55;;;1.10;99.90;;;;;;5026740;28;20033;-61
2023/12/01 01:21:05;;;;;;;37.95;20.52;;;1.10;99.90;;;;;;5026993;28;20037;-63
2023/12/01 01:23:30;;;;;;;23.65;15.88;;;1.10;99.90;;;;;;5025982;28;20029;-62
2023/12/01 01:25:56;;;;;;;22.13;15.38;;;1.10;99.90;;;;;;5025537;28;20044;-63
2023/12/01 01:28:21;;;;;;;20.02;15.60;;;1.10;99.90;;;;;;5023288;28;20030;-63
2023/12/01 01:30:47;;;;;;;28.23;16.63;;;1.10;99.90;;;;;;5026902;28;20018;-62
2023/12/01 01:33:13;;;;;;;29.05;16.67;;;1.10;99.90;;;;;;5025891;28;20018;-63
2023/12/01 01:35:38;;;;;;;23.50;16.98;;;1.20;99.90;;;;;;5025181;28;20099;-61
2023/12/01 01:38:04;;;;;;;27.35;17.73;;;1.20;99.90;;;;;;5025898;28;20041;-62
2023/12/01 01:40:29;;;;;;;24.23;16.38;;;1.20;99.90;;;;;;5026503;28;20496;-62
2023/12/01 01:42:55;;;;;;;22.63;15.85;;;1.20;99.90;;;;;;5024410;28;20025;-62
2023/12/01 01:45:21;;;;;;;24.17;15.15;;;1.20;99.90;;;;;;5026549;28;20029;-62
2023/12/01 01:47:47;;;;;;;23.48;16.40;;;1.10;99.90;;;;;;5025348;28;20049;-62
2023/12/01 01:50:13;;;;;;;28.42;15.68;;;1.20;99.90;;;;;;5025901;28;20389;-62
2023/12/01 01:52:40;;;;;;;19.38;15.02;;;1.20;99.90;;;;;;5026151;28;20030;-62
2023/12/01 01:55:07;;;;;;;28.48;16.35;;;1.20;99.90;;;;;;5025460;28;20513;-63
2023/12/01 01:57:38;;;;;;;19.45;15.32;;;1.20;99.90;;;;;;5024265;28;20840;-62
2023/12/01 02:00:05;;;;;;;23.58;16.05;;;1.20;99.90;;;;;;5024895;28;20068;-62
2023/12/01 02:02:32;;;;;;;23.08;16.30;;;1.20;99.90;;;;;;5025712;28;20037;-62
2023/12/01 02:04:58;;;;;;;19.58;15.23;;;1.20;99.90;;;;;;5024492;28;20033;-62
2023/12/01 02:07:26;;;;;;;19.85;15.52;;;1.20;99.90;;;;;;5024144;28;20505;-62
2023/12/01 02:09:53;;;;;;;25.00;14.85;;;1.20;99.90;;;;;;5025253;28;20490;-62
2023/12/01 02:12:18;;;;;;;24.05;16.52;;;1.20;99.90;;;;;;5025849;28;20026;-62
2023/12/01 02:14:44;;;;;;;25.60;16.00;;;1.20;99.90;;;;;;5024518;28;20444;-63
2023/12/01 02:17:10;;;;;;;22.48;16.02;;;1.20;99.90;;;;;;5026193;28;20033;-61
2023/12/01 02:19:35;;;;;;;19.83;15.98;;;1.20;99.90;;;;;;5024800;28;20034;-62
2023/12/01 02:22:01;;;;;;;29.50;18.15;;;1.20;99.90;;;;;;5025348;28;20541;-62
2023/12/01 02:24:26;;;;;;;29.58;17.80;;;1.20;99.90;;;;;;5025735;28;20064;-63
2023/12/01 02:26:52;;;;;;;26.40;16.70;;;1.20;99.90;;;;;;5026035;28;20026;-62
2023/12/01 02:29:18;;;;;;;25.73;18.20;;;1.20;99.90;;;;;;5024243;28;20102;-62
2023/12/01 02:31:43;;;;;;;28.42;13.73;;;1.20;99.90;;;;;;5024902;28;20049;-61
2023/12/01 02:34:09;;;;;;;21.48;15.88;;;1.30;99.90;;;;;;5025872;28;20034;-62
2023/12/01 02:36:35;;;;;;;22.20;14.88;;;1.20;99.90;;;;;;5017262;28;20108;-62
2023/12/01 02:39:02;;;;;;;42.92;19.58;;;1.20;99.90;;;;;;5024682;28;20036;-63
2023/12/01 02:41:28;;;;;;;30.85;17.63;;;1.20;99.90;;;;;;5025861;28;20025;-63
2023/12/01 02:43:54;;;;;;;20.65;15.20;;;1.30;99.90;;;;;;5023072;28;20075;-62
2023/12/01 02:46:22;;;;;;;24.00;15.25;;;1.30;99.90;;;;;;5025503;28;20090;-62
2023/12/01 02:48:49;;;;;;;23.98;15.40;;;1.30;99.90;;;;;;5024573;28;20060;-62
2023/12/01 02:51:15;;;;;;;23.25;16.13;;;1.30;99.90;;;;;;5025622;28;20097;-62
2023/12/01 02:53:41;;;;;;;20.73;15.35;;;1.30;99.90;;;;;;5024886;28;20112;-62
2023/12/01 02:56:07;;;;;;;23.67;15.88;;;1.30;99.90;;;;;;5025579;28;20057;-62
2023/12/01 02:58:33;;;;;;;22.00;15.18;;;1.30;99.90;;;;;;5023117;28;20041;-63
2023/12/01 03:01:00;;;;;;;19.88;15.18;;;1.30;99.90;;;;;;5025589;28;20558;-62
2023/12/01 03:03:25;;;;;;;18.58;14.93;;;1.30;99.90;;;;;;5026369;28;20061;-62
2023/12/01 03:05:51;;;;;;;23.45;15.85;;;1.30;99.90;;;;;;5024987;28;20053;-62
2023/12/01 03:08:17;;;;;;;21.02;14.88;;;1.30;99.90;;;;;;5025350;28;20026;-61
2023/12/01 03:10:42;;;;;;;19.33;14.18;;;1.30;99.90;;;;;;5024499;28;20091;-62
2023/12/01 03:13:08;;;;;;;16.98;13.20;;;1.30;99.90;;;;;;5024390;28;20037;-62
2023/12/01 03:15:34;;;;;;;16.95;13.93;;;1.30;99.90;;;;;;5025213;28;20029;-62
2023/12/01 03:18:00;;;;;;;22.65;14.38;;;1.30;99.90;;;;;;5028095;28;20191;-62
2023/12/01 03:20:27;;;;;;;18.48;13.55;;;1.30;99.90;;;;;;5028755;28;20561;-62
2023/12/01 03:22:53;;;;;;;20.48;15.10;;;1.30;99.90;;;;;;5028652;28;20022;-61
2023/12/01 03:25:19;;;;;;;17.70;13.93;;;1.40;99.90;;;;;;5027170;28;20508;-62
2023/12/01 03:27:47;;;;;;;19.52;14.63;;;1.40;99.90;;;;;;5025765;28;20021;-62
2023/12/01 03:30:17;;;;;;;20.00;15.52;;;1.40;99.90;;;;;;5028352;28;20092;-61
2023/12/01 03:32:44;;;;;;;21.75;15.32;;;1.30;99.90;;;;;;5027061;28;20033;-62
2023/12/01 03:35:12;;;;;;;23.15;16.48;;;1.30;99.90;;;;;;5028269;28;20133;-62
2023/12/01 03:37:37;;;;;;;22.17;16.52;;;1.30;99.90;;;;;;5027802;28;20128;-62
2023/12/01 03:40:07;;;;;;;22.17;15.70;;;1.30;99.90;;;;;;5028191;28;20550;-62
2023/12/01 03:42:32;;;;;;;21.42;15.13;;;1.30;99.90;;;;;;5029322;28;20095;-61
2023/12/01 03:44:58;;;;;;;20.30;15.73;;;1.30;99.90;;;;;;5027237;28;20481;-62
2023/12/01 03:47:24;;;;;;;20.25;16.02;;;1.30;99.90;;;;;;5028623;28;20117;-62
2023/12/01 03:49:49;;;;;;;21.77;14.45;;;1.30;99.90;;;;;;5027034;28;20824;-63
2023/12/01 03:52:15;;;;;;;25.27;17.05;;;1.30;99.90;;;;;;5028755;28;20036;-62
2023/12/01 03:54:40;;;;;;;25.23;15.80;;;1.30;99.90;;;;;;5025504;28;20037;-63
2023/12/01 03:57:06;;;;;;;20.67;14.60;;;1.30;99.90;;;;;;5028276;28;20025;-63
2023/12/01 03:59:32;;;;;;;21.13;14.90;;;1.30;99.90;;;;;;5027858;28;20034;-61
2023/12/01 04:01:57;;;;;;;20.02;15.25;;;1.30;99.90;;;;;;5025862;28;20449;-62
2023/12/01 04:04:23;;;;;;;25.02;16.58;;;1.30;99.90;;;;;;5027321;28;20036;-62
2023/12/01 04:06:48;;;;;;;22.13;16.20;;;1.30;99.90;;;;;;5027337;28;20076;-61
2023/12/01 04:09:16;;;;;;;21.20;14.65;;;1.30;99.90;;;;;;5028109;28;20060;-62
2023/12/01 04:11:41;;;;;;;23.67;15.15;;;1.30;99.90;;;;;;5026486;28;20121;-62
2023/12/01 04:14:07;;;;;;;23.67;16.25;;;1.30;99.90;;;;;;5028221;28;20108;-62
2023/12/01 04:16:33;;;;;;;24.48;15.90;;;1.30;99.90;;;;;;5026476;28;20443;-60
2023/12/01 04:18:58;;;;;;;22.55;16.10;;;1.30;99.90;;;;;;5026593;28;20557;-62
2023/12/01 04:21:24;;;;;;;22.45;16.45;;;1.30;99.90;;;;;;5028745;28;20021;-62
2023/12/01 04:23:52;;;;;;;25.30;18.13;;;1.30;99.90;;;;;;5027768;28;20536;-62
2023/12/01 04:26:18;;;;;;;21.77;16.75;;;1.30;99.90;;;;;;5024214;28;20030;-62
2023/12/01 04:28:44;;;;;;;24.55;18.45;;;1.30;99.90;;;;;;5025944;28;20044;-62
2023/12/01 04:31:09;;;;;;;28.38;17.75;;;1.30;99.90;;;;;;5024627;28;20760;-62
2023/12/01 04:33:35;;;;;;;21.50;16.88;;;1.30;99.90;;;;;;5025200;28;20216;-62
2023/12/01 04:36:06;;;;;;;24.20;16.25;;;1.20;99.90;;;;;;5027123;28;20052;-62
2023/12/01 04:38:33;;;;;;;;;;;1.20;99.90;;;;;;5027621;28;20025;-62
2023/12/01 04:40:58;;;;;;;22.35;17.67;;;1.20;99.90;;;;;;5027184;28;20255;-62
2023/12/01 04:43:24;;;;;;;24.83;17.95;;;1.20;99.90;;;;;;5025327;28;20057;-62
2023/12/01 04:45:50;;;;;;;21.15;16.95;;;1.20;99.90;;;;;;5026376;28;20056;-61
2023/12/01 04:48:16;;;;;;;31.58;18.17;;;1.10;99.90;;;;;;5025846;28;20025;-62
2023/12/01 04:50:46;;;;;;;27.30;18.60;;;1.10;99.90;;;;;;5025589;28;20025;-60
2023/12/01 04:53:12;;;;;;;27.37;18.77;;;1.10;99.90;;;;;;5026248;28;20527;-61
2023/12/01 04:55:38;;;;;;;29.58;18.63;;;1.10;99.90;;;;;;5024551;28;20041;-63
2023/12/01 04:58:04;;;;;;;34.95;20.05;;;1.10;99.90;;;;;;5026469;28;20037;-62
2023/12/01 05:00:29;;;;;;;30.42;20.70;;;1.10;99.90;;;;;;5027050;28;20033;-61
2023/12/01 05:03:07;;;;;;;29.23;18.52;;;1.10;99.90;;;;;;5024472;28;20426;-62
2023/12/01 05:05:34;;;;;;;31.30;20.35;;;1.10;99.90;;;;;;5026248;28;20037;-62
2023/12/01 05:08:04;;;;;;;26.42;18.63;;;1.10;99.90;;;;;;5025289;28;20030;-62
2023/12/01 05:10:31;;;;;;;31.88;19.08;;;1.10;99.90;;;;;;5027289;28;20405;-63
2023/12/01 05:13:05;;;;;;;31.02;19.33;;;1.10;99.90;;;;;;5026657;28;20080;-62
2023/12/01 05:15:32;;;;;;;30.88;20.45;;;1.20;99.90;;;;;;5024316;28;20029;-62
2023/12/01 05:18:00;;;;;;;51.58;34.08;;;1.20;99.90;;;;;;5024972;28;20819;-62
2023/12/01 05:20:29;;;;;;;30.92;19.77;;;1.20;99.90;;;;;;5026227;28;20440;-63
2023/12/01 05:23:07;;;;;;;40.08;22.98;;;1.20;99.90;;;;;;5026285;28;20583;-62
2023/12/01 05:25:33;;;;;;;30.65;21.13;;;1.20;99.90;;;;;;5026147;28;20112;-63
2023/12/01 05:28:01;;;;;;;35.00;21.88;;;1.20;99.90;;;;;;5025981;28;21805;-62
2023/12/01 05:30:29;;;;;;;32.35;21.88;;;1.20;99.90;;;;;;5026538;28;20437;-62
2023/12/01 05:32:56;;;;;;;33.92;21.35;;;1.20;99.90;;;;;;5026636;28;20022;-62
2023/12/01 05:35:22;;;;;;;32.88;21.42;;;1.20;99.90;;;;;;5026711;28;20033;-62
2023/12/01 05:37:58;;;;;;;55.80;30.15;;;1.20;99.90;;;;;;5026324;28;20025;-62
2023/12/01 05:40:39;;;;;;;51.67;28.50;;;1.10;99.90;;;;;;5022648;28;20036;-62
2023/12/01 05:43:06;;;;;;;39.35;23.23;;;1.10;99.90;;;;;;5024417;28;20037;-62
2023/12/01 05:45:35;;;;;;;38.90;22.45;;;1.10;99.90;;;;;;5025834;28;20013;-62
2023/12/01 05:48:11;;;;;;;35.47;22.38;;;1.20;99.90;;;;;;5026991;28;20064;-62
2023/12/01 05:50:37;;;;;;;36.15;21.75;;;1.20;99.90;;;;;;5024606;28;20087;-63
2023/12/01 05:53:06;;;;;;;40.90;23.55;;;1.20;99.90;;;;;;5026549;28;20026;-62
2023/12/01 05:55:35;;;;;;;41.28;22.95;;;1.20;99.90;;;;;;5019008;28;20876;-62
2023/12/01 05:58:04;;;;;;;39.10;22.58;;;1.10;99.90;;;;;;5023605;28;20029;-62
2023/12/01 06:00:31;;;;;;;40.00;23.08;;;1.10;99.90;;;;;;5024417;28;20087;-61
2023/12/01 06:02:59;;;;;;;42.42;22.85;;;1.10;99.90;;;;;;5026768;28;20452;-63
2023/12/01 06:05:25;;;;;;;42.22;23.00;;;1.10;99.90;;;;;;5023921;28;20542;-62
2023/12/01 06:07:56;;;;;;;41.25;23.02;;;1.10;99.90;;;;;;5024051;28;20030;-62
2023/12/01 06:10:23;;;;;;;44.42;23.15;;;1.10;99.90;;;;;;5024973;28;20113;-63
2023/12/01 06:12:49;;;;;;;50.30;24.50;;;1.10;99.90;;;;;;5023827;28;20026;-62
2023/12/01 06:15:17;;;;;;;48.83;23.48;;;1.00;99.90;;;;;;5025345;28;20544;-62
2023/12/01 06:17:47;;;;;;;40.75;21.27;;;1.00;99.90;;;;;;5011318;28;20025;-62
2023/12/01 06:20:18;;;;;;;43.75;21.27;;;1.00;99.90;;;;;;5024427;28;20148;-63
2023/12/01 06:22:57;;;;;;;37.35;20.67;;;1.00;99.90;;;;;;5025712;28;20022;-62
2023/12/01 06:25:28;;;;;;;33.50;19.00;;;1.10;99.90;;;;;;5025716;28;20033;-62
2023/12/01 06:27:57;;;;;;;34.35;21.10;;;1.10;99.90;;;;;;5024047;28;20080;-63
2023/12/01 06:30:24;;;;;;;39.85;23.75;;;1.10;99.90;;;;;;5025698;28;20018;-63
2023/12/01 06:32:50;;;;;;;35.83;20.58;;;1.10;99.90;;;;;;5023572;28;20530;-62
2023/12/01 06:35:19;;;;;;;43.60;20.58;;;1.00;99.90;;;;;;5025761;28;20041;-63
2023/12/01 06:37:46;;;;;;;75.30;34.15;;;1.00;99.90;;;;;;5024648;28;20609;-62
2023/12/01 06:40:13;;;;;;;56.45;26.92;;;1.00;99.90;;;;;;5026369;28;20030;-62
2023/12/01 06:42:40;;;;;;;57.28;26.85;;;0.90;99.90;;;;;;5024064;28;20132;-63
2023/12/01 06:45:06;;;;;;;76.32;33.90;;;0.90;99.90;;;;;;5025138;28;20030;-64
2023/12/01 06:47:32;;;;;;;40.35;19.48;;;0.90;99.90;;;;;;5023202;28;20095;-63
2023/12/01 06:49:58;;;;;;;44.28;20.45;;;0.90;99.90;;;;;;5023330;28;20033;-64
2023/12/01 06:52:24;;;;;;;58.47;25.55;;;0.90;99.90;;;;;;5029364;28;20025;-63
2023/12/01 06:54:50;;;;;;;108.05;41.95;;;0.90;99.90;;;;;;5027101;28;20034;-61
2023/12/01 06:57:15;;;;;;;129.90;50.22;;;0.80;99.90;;;;;;5029000;28;20413;-64
2023/12/01 06:59:41;;;;;;;65.88;28.05;;;0.90;99.90;;;;;;5027593;28;20358;-63
2023/12/01 07:02:06;;;;;;;208.85;73.78;;;0.90;99.90;;;;;;5027649;28;20029;-63
2023/12/01 07:04:32;;;;;;;108.65;39.50;;;0.90;99.90;;;;;;5027987;28;20611;-63
2023/12/01 07:07:00;;;;;;;53.53;24.95;;;0.90;99.90;;;;;;5029282;28;20021;-64
2023/12/01 07:09:27;;;;;;;40.22;20.13;;;0.80;99.90;;;;;;5027683;28;20033;-64
2023/12/01 07:11:53;;;;;;;32.83;19.08;;;0.90;99.90;;;;;;5025698;28;20096;-64
2023/12/01 07:14:19;;;;;;;50.25;23.48;;;0.90;99.90;;;;;;5026725;28;20505;-62
2023/12/01 07:16:45;;;;;;;50.50;23.17;;;0.90;99.90;;;;;;5027117;28;20029;-63
2023/12/01 07:19:11;;;;;;;71.30;32.17;;;0.90;99.90;;;;;;5027338;28;20037;-63
2023/12/01 07:21:38;;;;;;;59.83;26.85;;;0.90;99.90;;;;;;5023900;28;20497;-63
2023/12/01 07:24:06;;;;;;;57.75;23.80;;;0.80;99.90;;;;;;5028014;28;20034;-64
2023/12/01 07:26:33;;;;;;;44.53;22.80;;;0.90;99.90;;;;;;5027310;28;20038;-64
2023/12/01 07:29:04;;;;;;;92.10;37.95;;;0.80;99.90;;;;;;5028482;28;20494;-63
2023/12/01 07:31:33;;;;;;;52.90;26.13;;;0.80;99.90;;;;;;5023714;28;20240;-62
2023/12/01 07:34:00;;;;;;;169.68;57.42;;;0.80;99.90;;;;;;5027318;28;20030;-63
2023/12/01 07:36:27;;;;;;;63.72;25.58;;;0.80;99.90;;;;;;5026877;28;20053;-64
2023/12/01 07:38:53;;;;;;;88.18;35.58;;;0.80;99.90;;;;;;5028047;28;20049;-64
2023/12/01 07:41:18;;;;;;;124.65;48.28;;;0.80;99.90;;;;;;5026749;28;20026;-64
2023/12/01 07:43:44;;;;;;;89.28;36.80;;;0.80;99.90;;;;;;5028219;28;20050;-64
2023/12/01 07:46:09;;;;;;;84.57;34.25;;;0.80;99.90;;;;;;5025705;28;20033;-65
2023/12/01 07:48:36;;;;;;;60.13;28.60;;;0.80;99.90;;;;;;5028373;28;20077;-65
2023/12/01 07:51:04;;;;;;;94.60;36.97;;;0.80;99.90;;;;;;5028171;28;20033;-64
2023/12/01 07:53:30;;;;;;;76.72;32.17;;;0.80;99.90;;;;;;5027945;28;20130;-64
2023/12/01 07:55:55;;;;;;;97.05;39.40;;;0.80;99.90;;;;;;5027451;28;20041;-64
2023/12/01 07:58:21;;;;;;;50.17;23.95;;;0.80;99.90;;;;;;5026607;28;20056;-63
2023/12/01 08:00:47;;;;;;;90.82;36.33;;;0.80;99.90;;;;;;5027022;28;20049;-64
2023/12/01 08:03:12;;;;;;;83.50;33.47;;;0.80;99.90;;;;;;5027949;28;20017;-63
2023/12/01 08:05:39;;;;;;;49.97;22.55;;;0.80;99.90;;;;;;5025141;28;20034;-63
2023/12/01 08:08:04;;;;;;;155.35;58.75;;;0.80;99.90;;;;;;5025447;28;20041;-63
2023/12/01 08:10:30;;;;;;;76.60;33.45;;;0.80;99.90;;;;;;5021252;28;20055;-63
2023/12/01 08:12:56;;;;;;;47.40;22.42;;;0.80;99.90;;;;;;5023146;28;20112;-64
2023/12/01 08:15:22;;;;;;;61.55;28.02;;;0.80;99.90;;;;;;5023688;28;20371;-64
2023/12/01 08:17:49;;;;;;;105.38;42.42;;;0.80;99.90;;;;;;5022305;28;20025;-63
2023/12/01 08:20:16;;;;;;;80.60;31.85;;;0.80;99.90;;;;;;5023346;28;20029;-63
2023/12/01 08:22:43;;;;;;;57.35;23.40;;;0.90;99.90;;;;;;5019871;28;20050;-63
2023/12/01 08:25:09;;;;;;;88.43;35.72;;;0.90;99.90;;;;;;5019623;28;20121;-62
2023/12/01 08:27:35;;;;;;;103.72;41.85;;;0.90;99.90;;;;;;5022486;28;20031;-63
2023/12/01 08:30:02;;;;;;;68.32;29.98;;;0.90;99.90;;;;;;5022240;28;20056;-62
2023/12/01 08:32:28;;;;;;;41.08;20.13;;;0.90;99.90;;;;;;5025257;28;20037;-63
2023/12/01 08:34:54;;;;;;;56.58;24.58;;;0.90;99.90;;;;;;5022018;28;20033;-63
2023/12/01 08:37:20;;;;;;;37.78;20.30;;;0.90;99.90;;;;;;5020458;28;20025;-64
2023/12/01 08:39:46;;;;;;;37.22;20.52;;;0.90;99.90;;;;;;5023765;28;20124;-64
2023/12/01 08:42:12;;;;;;;68.45;30.05;;;0.90;99.90;;;;;;5024934;28;20109;-62
2023/12/01 08:44:37;;;;;;;49.30;20.77;;;0.90;99.90;;;;;;5024086;28;20030;-63
2023/12/01 08:47:03;;;;;;;43.78;19.25;;;1.00;99.90;;;;;;5025791;28;20026;-63
2023/12/01 08:49:30;;;;;;;34.70;18.20;;;1.00;99.90;;;;;;5024396;28;20087;-63
2023/12/01 08:51:55;;;;;;;35.90;17.92;;;1.00;99.90;;;;;;5025127;28;20033;-63
2023/12/01 08:54:22;;;;;;;44.65;21.58;;;1.00;99.90;;;;;;5022207;28;20041;-64
2023/12/01 08:56:48;;;;;;;46.25;23.55;;;1.10;99.90;;;;;;5023628;28;20108;-64
2023/12/01 08:59:14;;;;;;;37.70;20.15;;;1.10;99.90;;;;;;5021655;28;20125;-64
2023/12/01 09:01:42;;;;;;;36.83;20.45;;;1.10;99.90;;;;;;5024116;28;20117;-62
2023/12/01 09:04:08;;;;;;;37.83;16.92;;;1.20;99.90;;;;;;5023804;28;20543;-64
2023/12/01 09:06:34;;;;;;;37.63;17.77;;;1.20;99.90;;;;;;5026604;28;20029;-65
2023/12/01 09:08:59;;;;;;;34.38;18.00;;;1.20;99.90;;;;;;5027261;28;20199;-66
2023/12/01 09:11:25;;;;;;;29.27;16.20;;;1.30;99.90;;;;;;5022006;28;20394;-64
2023/12/01 09:13:52;;;;;;;31.67;17.40;;;1.30;99.90;;;;;;5022196;28;20033;-64
2023/12/01 09:16:20;;;;;;;31.55;17.65;;;1.30;99.90;;;;;;5021288;28;20091;-65
2023/12/01 09:18:46;;;;;;;32.10;16.98;;;1.40;99.90;;;;;;5024027;28;20025;-65
2023/12/01 09:21:12;;;;;;;29.17;16.80;;;1.50;99.90;;;;;;5024008;28;20024;-65
2023/12/01 09:23:40;;;;;;;26.35;16.20;;;1.50;99.90;;;;;;5024432;28;20080;-65
2023/12/01 09:26:06;;;;;;;37.03;17.05;;;1.50;99.90;;;;;;5023874;28;20033;-64
2023/12/01 09:28:33;;;;;;;26.60;15.82;;;1.50;99.90;;;;;;5022826;28;20041;-65
2023/12/01 09:31:02;;;;;;;27.50;16.52;;;1.50;99.90;;;;;;5022260;28;20105;-65
2023/12/01 09:33:28;;;;;;;33.03;17.08;;;1.50;99.90;;;;;;5024232;28;20085;-65
2023/12/01 09:35:53;;;;;;;33.40;18.45;;;1.50;99.90;;;;;;5021284;28;20437;-65
2023/12/01 09:38:19;;;;;;;37.88;18.77;;;1.60;99.90;;;;;;5023971;28;20386;-64
2023/12/01 09:40:45;;;;;;;33.92;17.48;;;1.60;99.90;;;;;;5021628;28;20489;-64
2023/12/01 09:43:18;;;;;;;29.83;17.90;;;1.60;99.90;;;;;;5026294;28;20469;-63
2023/12/01 09:45:44;;;;;;;33.05;16.33;;;1.70;99.90;;;;;;5021851;28;20504;-64
2023/12/01 09:48:11;;;;;;;30.10;15.63;;;1.70;99.90;;;;;;5025560;28;20021;-64
2023/12/01 09:50:37;;;;;;;35.75;17.20;;;1.70;99.90;;;;;;5026284;28;20025;-64
2023/12/01 09:53:03;;;;;;;28.38;16.02;;;1.60;99.90;;;;;;5026502;28;20395;-65
2023/12/01 09:55:29;;;;;;;27.00;16.27;;;1.60;99.90;;;;;;5025113;28;20405;-64
2023/12/01 09:57:56;;;;;;;27.63;15.63;;;1.60;99.90;;;;;;5025335;28;20010;-64
2023/12/01 10:00:22;;;;;;;28.05;15.57;;;1.60;99.90;;;;;;5026935;28;20025;-64
2023/12/01 10:02:51;;;;;;;26.80;14.55;;;1.50;99.90;;;;;;5023921;28;20477;-63
2023/12/01 10:05:20;;;;;;;25.73;14.85;;;1.50;99.90;;;;;;5026248;28;20052;-63
2023/12/01 10:07:48;;;;;;;27.25;16.67;;;1.60;99.90;;;;;;5025539;28;20117;-63
2023/12/01 10:10:21;;;;;;;26.85;16.23;;;1.60;99.90;;;;;;5024876;28;20440;-63
2023/12/01 10:13:04;;;;;;;23.65;14.65;;;1.60;99.90;;;;;;5020965;28;20116;-63
2023/12/01 10:15:30;;;;;;;26.17;15.15;;;1.60;99.90;;;;;;5024060;28;20112;-62
2023/12/01 10:18:12;;;;;;;24.25;14.50;;;1.60;99.90;;;;;;5024915;28;20053;-63
2023/12/01 10:20:42;;;;;;;27.65;15.55;;;1.60;99.90;;;;;;5024058;28;20654;-62
2023/12/01 10:23:20;;;;;;;23.80;13.93;;;1.60;99.90;;;;;;5025649;28;20032;-61
2023/12/01 10:25:48;;;;;;;25.85;13.32;;;1.60;99.90;;;;;;5027151;28;20034;-63
2023/12/01 10:28:14;;;;;;;21.77;14.10;;;1.60;99.90;;;;;;5030579;28;20037;-63
2023/12/01 10:30:54;;;;;;;21.25;13.45;;;1.50;99.90;;;;;;5030337;28;20021;-62
2023/12/01 10:33:21;;;;;;;25.50;14.63;;;1.50;99.90;;;;;;5032546;28;20094;-63
2023/12/01 10:36:01;;;;;;;25.88;13.88;;;1.50;99.90;;;;;;5027994;28;20405;-62
2023/12/01 10:38:28;;;;;;;22.52;13.95;;;1.40;99.90;;;;;;5032802;28;20055;-62
2023/12/01 10:40:58;;;;;;;23.15;11.10;;;1.40;99.90;;;;;;5031641;28;20380;-63
2023/12/01 10:43:26;;;;;;;24.55;12.95;;;1.40;99.90;;;;;;5032094;28;20045;-63
2023/12/01 10:45:52;;;;;;;19.52;12.48;;;1.30;99.90;;;;;;5029759;28;20120;-62
2023/12/01 10:48:19;;;;;;;21.83;12.68;;;1.30;99.90;;;;;;5032745;28;20083;-62
2023/12/01 10:50:47;;;;;;;21.40;12.27;;;1.30;99.90;;;;;;5032340;28;20128;-61
2023/12/01 10:53:15;;;;;;;22.13;12.23;;;1.30;99.90;;;;;;5030254;28;20029;-62
2023/12/01 10:55:48;;;;;;;25.05;13.75;;;1.30;99.90;;;;;;5029530;28;20573;-61
2023/12/01 10:58:24;;;;;;;23.83;13.13;;;1.30;99.90;;;;;;5031559;28;20084;-63
2023/12/01 11:00:52;;;;;;;30.02;15.52;;;1.40;99.90;;;;;;5024774;28;20025;-61
2023/12/01 11:03:20;;;;;;;19.27;11.98;;;1.40;99.90;;;;;;5026245;28;20017;-60
2023/12/01 11:05:53;;;;;;;23.40;12.68;;;1.40;99.90;;;;;;5022054;28;20036;-62
2023/12/01 11:08:35;;;;;;;28.02;12.95;;;1.50;99.90;;;;;;5028724;28;20038;-62
2023/12/01 11:11:22;;;;;;;16.63;10.80;;;1.50;99.90;;;;;;5029701;28;20087;-62
2023/12/01 11:14:19;;;;;;;20.90;12.27;;;1.50;99.90;;;;;;5029009;28;20036;-63
2023/12/01 11:16:49;;;;;;;19.20;12.43;;;1.50;99.90;;;;;;5028909;28;20057;-63
2023/12/01 11:19:18;;;;;;;23.50;11.40;;;1.40;99.90;;;;;;5029810;28;20327;-62
2023/12/01 11:21:44;;;;;;;24.25;11.82;;;1.40;99.90;;;;;;5028574;28;20021;-62
2023/12/01 11:24:32;;;;;;;19.50;11.63;;;1.40;99.90;;;;;;5027730;28;20029;-62
2023/12/01 11:27:05;;;;;;;21.88;10.85;;;1.40;99.90;;;;;;5025441;28;20033;-63
2023/12/01 11:29:36;;;;;;;24.17;12.70;;;1.40;99.90;;;;;;5025045;28;20033;-61
2023/12/01 11:32:03;;;;;;;;;;;1.40;99.90;;;;;;5026987;28;20778;-62
2023/12/01 11:34:30;;;;;;;16.25;10.52;;;1.50;99.90;;;;;;5024626;28;20384;-62
2023/12/01 11:36:56;;;;;;;18.27;10.35;;;1.50;99.90;;;;;;5022971;28;20393;-62
2023/12/01 11:39:29;;;;;;;14.93;10.35;;;1.50;99.90;;;;;;5021743;28;20026;-63
2023/12/01 11:41:58;;;;;;;13.93;10.07;;;1.50;99.90;;;;;;5025920;28;20018;-62
2023/12/01 11:44:26;;;;;;;22.67;10.77;;;1.50;99.90;;;;;;5028726;28;20067;-62
2023/12/01 11:46:56;;;;;;;13.68;8.82;;;1.50;99.90;;;;;;5028273;28;20026;-62
2023/12/01 11:49:31;;;;;;;14.45;9.48;;;1.50;99.90;;;;;;5027322;28;20072;-63
2023/12/01 11:52:01;;;;;;;13.65;8.57;;;1.40;99.90;;;;;;5028008;28;20033;-62
2023/12/01 11:54:27;;;;;;;13.35;9.50;;;1.30;99.90;;;;;;5026470;28;20030;-62
2023/12/01 11:56:55;;;;;;;15.43;9.40;;;1.30;99.90;;;;;;5027146;28;20038;-62
2023/12/01 11:59:22;;;;;;;15.50;9.32;;;1.30;99.90;;;;;;5025581;28;20033;-62
2023/12/01 12:01:48;;;;;;;12.30;8.25;;;1.30;99.90;;;;;;5028745;28;20508;-63
2023/12/01 12:04:16;;;;;;;13.10;9.50;;;1.30;99.90;;;;;;5026839;28;20066;-61
2023/12/01 12:06:44;;;;;;;16.45;10.15;;;1.20;99.90;;;;;;5026110;28;20446;-62
2023/12/01 12:09:10;;;;;;;15.20;9.55;;;1.20;99.90;;;;;;5028609;28;20033;-63
2023/12/01 12:11:40;;;;;;;12.23;8.85;;;1.20;99.90;;;;;;5023423;28;20041;-62
2023/12/01 12:14:06;;;;;;;13.35;9.88;;;1.20;99.90;;;;;;5026287;28;20041;-62
2023/12/01 12:16:32;;;;;;;17.50;9.68;;;1.30;99.90;;;;;;5026215;28;20034;-62
2023/12/01 12:18:59;;;;;;;18.38;9.38;;;1.20;99.90;;;;;;5027111;28;20116;-62
2023/12/01 12:21:25;;;;;;;12.05;8.02;;;1.20;99.90;;;;;;5028435;28;20033;-62
2023/12/01 12:23:51;;;;;;;18.30;9.55;;;1.20;99.90;;;;;;5026685;28;20037;-62
2023/12/01 12:26:20;;;;;;;13.30;8.80;;;1.20;99.90;;;;;;5027613;28;20041;-62
2023/12/01 12:28:52;;;;;;;12.70;9.07;;;1.20;99.90;;;;;;5027609;28;20030;-61
2023/12/01 12:31:18;;;;;;;16.05;9.48;;;1.20;99.90;;;;;;5027809;28;20044;-62
2023/12/01 12:33:44;;;;;;;15.40;9.45;;;1.10;99.90;;;;;;5027201;28;20037;-62
2023/12/01 12:36:12;;;;;;;18.27;11.38;;;1.10;99.90;;;;;;5028406;28;20037;-62
2023/12/01 12:38:38;;;;;;;18.70;10.93;;;1.10;99.90;;;;;;5026286;28;20030;-62